Lightning — WDG8552 — position and weather

sailwx.info

Track history (hours):
 
Tides and Currents Weather Stations Pressure Air Temp Water Temp Dewpoint Dewpoint Depression Visibility Wind Speed Wind Dir Waves Ship Positions

Lightning

Owner: Boston Harbor Cruises, Boston, MA. More information available from US FCC via Universal Licensing System and Coast Guard Vessel Documentation Center.

Last reported at 2017-Sep-26 22:01 UTC. Time now 2017-Sep-26 22:04 UTC.
Position N 42°22' W 071°03'.

Length 22 m; draft 2.6 m.

Type: High speed craft. MMSI: 367578720.

Date/timePositionNaut miles runAvg speedWind from/ knotsBaromVisibWave heightAir tempDewpointWater temp
2017-Sep-26 22:01N 42°22' W 071°03'612.2
2017-Sep-26 21:30N 42°17' W 070°57'1 2.6
2017-Sep-26 21:00N 42°17' W 070°56'713.8
2017-Sep-26 20:30N 42°22' W 071°03'510.8
2017-Sep-26 20:00N 42°18' W 070°58'3 5.7
2017-Sep-26 19:30N 42°16' W 070°55'4 8.0
2017-Sep-26 19:00N 42°20' W 070°57'5 9.1
2017-Sep-26 18:31N 42°21' W 071°02'816.4
2017-Sep-26 18:01N 42°15' W 070°55'3 5.8
2017-Sep-26 17:30N 42°18' W 070°55'713.3
2017-Sep-26 17:01N 42°22' W 071°03'3 6.7
2017-Sep-26 16:30N 42°20' W 070°59'610.5
2017-Sep-26 15:58N 42°15' W 070°55'3 6.4
2017-Sep-26 15:31N 42°18' W 070°55'713.5
2017-Sep-26 15:01N 42°22' W 071°03'0 0.0
2017-Sep-26 14:30N 42°22' W 071°03'1 1.3
2017-Sep-26 14:00N 42°22' W 071°02'1 1.3
2017-Sep-26 13:30N 42°22' W 071°03'713.3
2017-Sep-26 13:01N 42°18' W 070°55'713.0
2017-Sep-26 12:30N 42°22' W 071°03'612.5
2017-Sep-26 12:00N 42°18' W 070°56'612.6
2017-Sep-26 11:30N 42°22' W 071°03'713.5
2017-Sep-26 11:00N 42°18' W 070°55'3 5.7
2017-Sep-26 10:30N 42°15' W 070°55'0 0.0
2017-Sep-26 10:00N 42°15' W 070°55'0 0.2
2017-Sep-26 09:30N 42°15' W 070°55'0 0.0
2017-Sep-26 02:48N 42°15' W 070°55'0 0.0
2017-Sep-26 02:29N 42°15' W 070°55'0 0.6
2017-Sep-26 02:00N 42°15' W 070°55'713.2
2017-Sep-26 01:30N 42°21' W 071°01'2 3.4
2017-Sep-26 01:01N 42°22' W 071°03'816.7
2017-Sep-26 00:30N 42°15' W 070°55'5 9.2
2017-Sep-26 00:01N 42°19' W 070°59'4 8.1
2017-Sep-25 23:31N 42°22' W 071°03'816.6
2017-Sep-25 23:01N 42°16' W 070°55'2 5.0
2017-Sep-25 22:31N 42°18' W 070°55'713.3
2017-Sep-25 22:00N 42°22' W 071°03'612.6
2017-Sep-25 21:31N 42°17' W 070°57'1 2.1
2017-Sep-25 21:01N 42°17' W 070°56'714.0
2017-Sep-25 20:30N 42°22' W 071°03'510.0
2017-Sep-25 20:01N 42°18' W 070°58'3 6.4
2017-Sep-25 19:30N 42°16' W 070°55'3 6.9
2017-Sep-25 19:01N 42°19' W 070°56'510.2
2017-Sep-25 18:30N 42°22' W 071°02'816.3
2017-Sep-25 18:00N 42°15' W 070°55'3 5.9
2017-Sep-25 17:31N 42°18' W 070°55'713.4
2017-Sep-25 17:00N 42°22' W 071°03'4 7.7
2017-Sep-25 16:30N 42°20' W 070°58'510.9
2017-Sep-25 16:00N 42°15' W 070°55'3 5.6
2017-Sep-25 15:30N 42°18' W 070°55'713.5
2017-Sep-25 15:01N 42°22' W 071°03'0 0.0
2017-Sep-25 14:30N 42°22' W 071°03'0 0.0
2017-Sep-25 14:00N 42°22' W 071°03'0 0.0
2017-Sep-25 13:31N 42°22' W 071°03'713.4
2017-Sep-25 13:00N 42°18' W 070°55'713.5
2017-Sep-25 12:30N 42°22' W 071°03'713.6
2017-Sep-25 12:00N 42°18' W 070°55'713.3
2017-Sep-25 11:30N 42°22' W 071°03'713.3
2017-Sep-25 11:00N 42°18' W 070°55'3 5.9
2017-Sep-25 10:30N 42°15' W 070°55'0 0.0
2017-Sep-25 01:27N 42°15' W 070°55'4 9.9
2017-Sep-25 01:00N 42°19' W 070°59'4 8.2
2017-Sep-25 00:30N 42°22' W 071°03'917.1
2017-Sep-25 00:00N 42°15' W 070°55'2 3.9
2017-Sep-24 23:31N 42°17' W 070°56'714.0
2017-Sep-24 23:01N 42°22' W 071°03'3 5.8
2017-Sep-24 22:30N 42°20' W 070°59'611.9
2017-Sep-24 22:00N 42°15' W 070°55'3 5.4
2017-Sep-24 21:31N 42°18' W 070°55'713.6
2017-Sep-24 21:01N 42°22' W 071°03'3 5.2
2017-Sep-24 20:31N 42°21' W 070°60'612.6
2017-Sep-24 20:00N 42°15' W 070°55'2 3.8
2017-Sep-24 19:31N 42°17' W 070°56'713.9
2017-Sep-24 19:00N 42°22' W 071°03'2 4.9
2017-Sep-24 18:31N 42°21' W 071°00'612.8
2017-Sep-24 18:01N 42°15' W 070°55'2 4.3
2017-Sep-24 17:31N 42°17' W 070°56'713.7
2017-Sep-24 17:00N 42°22' W 071°03'3 5.9
2017-Sep-24 16:30N 42°20' W 070°59'6 8.2
2017-Sep-24 15:47N 42°15' W 070°55'1 3.0
2017-Sep-24 15:31N 42°16' W 070°56'815.5
2017-Sep-24 15:00N 42°22' W 071°03'611.4
2017-Sep-24 14:30N 42°19' W 070°56'4 7.9
2017-Sep-24 14:00N 42°15' W 070°55'0 0.7
2017-Sep-24 13:31N 42°16' W 070°55'816.8
2017-Sep-24 13:01N 42°22' W 071°03'3 5.2
2017-Sep-24 12:31N 42°20' W 070°60'612.4
2017-Sep-24 12:00N 42°15' W 070°55'1 2.0
2017-Sep-24 11:30N 42°16' W 070°56'2 0.3
2017-Sep-24 04:44N 42°15' W 070°58'2 7.0
2017-Sep-24 04:30N 42°15' W 070°57'1 2.0
2017-Sep-24 04:00N 42°16' W 070°55'714.9
2017-Sep-24 03:31N 42°21' W 071°02'5 9.5
2017-Sep-24 03:00N 42°18' W 070°58'3 5.6
2017-Sep-24 02:30N 42°16' W 070°55'816.3
2017-Sep-24 02:00N 42°22' W 071°03'510.4
2017-Sep-24 01:31N 42°18' W 070°58'3 6.7
2017-Sep-24 01:00N 42°15' W 070°55'3 6.0
2017-Sep-24 00:31N 42°18' W 070°55'611.7
2017-Sep-24 00:00N 42°21' W 071°02'0 0.6
2017-Sep-23 23:30N 42°21' W 071°02'815.9
2017-Sep-23 23:00N 42°15' W 070°55'1 1.6
2017-Sep-23 22:30N 42°16' W 070°56'4 7.1
2017-Sep-23 22:01N 42°19' W 070°59'4 7.6
2017-Sep-23 21:31N 42°22' W 071°02'815.7
2017-Sep-23 20:59N 42°15' W 070°55'2 4.5
2017-Sep-23 20:30N 42°17' W 070°56'713.8
2017-Sep-23 20:00N 42°22' W 071°03'1 0.0
2017-Sep-22 02:00N 42°22' W 071°02'0 1.0
2017-Sep-22 01:30N 42°21' W 071°02'816.3
2017-Sep-22 01:00N 42°15' W 070°55'5 9.5
2017-Sep-22 00:30N 42°19' W 070°59'3 6.4
2017-Sep-22 00:01N 42°22' W 071°02'815.9
2017-Sep-21 23:30N 42°15' W 070°55'3 5.7
2017-Sep-21 23:01N 42°18' W 070°57'611.7
2017-Sep-21 22:30N 42°22' W 071°03'713.2
2017-Sep-21 22:01N 42°18' W 070°55'713.5
2017-Sep-21 21:30N 42°22' W 071°03'1 2.0
2017-Sep-21 21:00N 42°22' W 071°02'815.8
2017-Sep-21 20:30N 42°15' W 070°55'4 7.7
2017-Sep-21 20:01N 42°19' W 070°56'510.9
2017-Sep-21 19:30N 42°22' W 071°03'816.4
2017-Sep-21 18:59N 42°15' W 070°55'0 0.8
2017-Sep-21 18:30N 42°16' W 070°55'816.8
2017-Sep-21 18:00N 42°22' W 071°03'3 6.7
2017-Sep-21 17:30N 42°19' W 070°60'510.3
2017-Sep-21 16:59N 42°15' W 070°55'510.3
2017-Sep-21 16:31N 42°19' W 070°59'4 7.4
2017-Sep-21 16:00N 42°22' W 071°03'0 0.0
2017-Sep-21 15:30N 42°22' W 071°03'0 0.5
2017-Sep-21 15:00N 42°22' W 071°03'1 2.9
2017-Sep-21 14:31N 42°21' W 071°01'714.1
2017-Sep-21 14:00N 42°15' W 070°55'613.0
2017-Sep-21 13:31N 42°20' W 071°00'2 3.3
2017-Sep-21 13:00N 42°21' W 071°02'612.2
2017-Sep-21 12:30N 42°18' W 070°55'713.5
2017-Sep-21 12:00N 42°22' W 071°03'713.5
2017-Sep-21 11:31N 42°18' W 070°55'0 0.3
2017-Sep-21 11:01N 42°18' W 070°55'713.3
2017-Sep-21 10:31N 42°22' W 071°03'713.2
2017-Sep-21 10:01N 42°18' W 070°55'3 5.8
2017-Sep-21 09:31N 42°15' W 070°55'1 0.2
2017-Sep-21 02:47N 42°15' W 070°57'1 4.5
2017-Sep-21 02:29N 42°15' W 070°55'816.9
2017-Sep-21 02:00N 42°22' W 071°02'0 1.0
2017-Sep-21 01:31N 42°21' W 071°02'816.2
2017-Sep-21 01:01N 42°15' W 070°55'510.1
2017-Sep-21 00:31N 42°20' W 070°57'4 7.2
2017-Sep-21 00:00N 42°22' W 071°02'815.9
2017-Sep-20 23:30N 42°15' W 070°55'3 6.3
2017-Sep-20 23:01N 42°18' W 070°56'612.7
2017-Sep-20 22:30N 42°22' W 071°03'713.5
2017-Sep-20 22:00N 42°18' W 070°55'713.5
2017-Sep-20 21:31N 42°22' W 071°03'1 1.9
2017-Sep-20 21:00N 42°22' W 071°02'815.8
2017-Sep-20 20:30N 42°15' W 070°55'2 3.9
2017-Sep-20 20:01N 42°17' W 070°57'713.3
2017-Sep-20 19:31N 42°22' W 071°03'917.0
2017-Sep-20 19:00N 42°15' W 070°55'0 0.4
2017-Sep-20 18:31N 42°15' W 070°55'917.0
2017-Sep-20 18:01N 42°22' W 071°03'2 4.0
2017-Sep-20 17:31N 42°21' W 071°01'713.3
2017-Sep-20 17:00N 42°15' W 070°55'510.4
2017-Sep-20 16:30N 42°19' W 070°60'4 7.1
2017-Sep-20 16:00N 42°22' W 071°03'0 0.0
2017-Sep-20 15:30N 42°22' W 071°03'0 0.4
2017-Sep-20 15:01N 42°22' W 071°03'9 7.6
2017-Sep-20 13:53N 42°15' W 070°55'718.8
2017-Sep-20 13:30N 42°21' W 071°01'1 2.9
2017-Sep-20 13:00N 42°22' W 071°03'713.0
2017-Sep-20 12:30N 42°18' W 070°55'713.5
2017-Sep-20 12:00N 42°22' W 071°03'713.6
2017-Sep-20 11:31N 42°18' W 070°55'0 0.3
2017-Sep-20 11:00N 42°18' W 070°55'613.0
2017-Sep-20 10:31N 42°22' W 071°03'613.0
2017-Sep-20 10:01N 42°18' W 070°55'3 5.2
2017-Sep-20 09:30N 42°16' W 070°55'2 0.3
2017-Sep-20 02:59N 42°15' W 070°58'2 4.6
2017-Sep-20 02:30N 42°15' W 070°55'816.1
2017-Sep-20 02:01N 42°22' W 071°02'0 1.0
2017-Sep-20 01:31N 42°21' W 071°02'815.4
2017-Sep-20 00:59N 42°15' W 070°55'4 9.0
2017-Sep-20 00:31N 42°19' W 070°59'4 7.1
2017-Sep-20 00:01N 42°22' W 071°02'815.9
2017-Sep-19 23:30N 42°15' W 070°55'2 4.3
2017-Sep-19 23:00N 42°17' W 070°57'612.9
2017-Sep-19 22:30N 42°22' W 071°03'713.3
2017-Sep-19 22:00N 42°18' W 070°55'713.5
2017-Sep-19 21:31N 42°22' W 071°03'1 2.0
2017-Sep-19 21:01N 42°22' W 071°02'815.8
2017-Sep-19 20:30N 42°15' W 070°55'4 7.6
2017-Sep-19 20:01N 42°19' W 070°56'510.9
2017-Sep-19 19:31N 42°22' W 071°03'8 9.1
2017-Sep-19 18:36N 42°15' W 070°55'0 3.1
2017-Sep-19 18:31N 42°15' W 070°55'817.0
2017-Sep-19 18:00N 42°22' W 071°03'1 3.0
2017-Sep-19 17:31N 42°21' W 071°01'714.5
2017-Sep-19 17:01N 42°15' W 070°55'4 9.0
2017-Sep-19 16:31N 42°19' W 070°59'4 3.1
2017-Sep-19 15:12N 42°22' W 071°03'0 0.9
2017-Sep-19 15:00N 42°22' W 071°03'2 4.5
2017-Sep-19 14:31N 42°20' W 071°00'612.2
2017-Sep-19 13:59N 42°15' W 070°55'714.5
2017-Sep-19 13:30N 42°21' W 071°01'2 3.2
2017-Sep-19 13:01N 42°22' W 071°03'612.9
2017-Sep-19 12:30N 42°18' W 070°55'713.5
2017-Sep-19 12:00N 42°22' W 071°03'713.5
2017-Sep-19 11:31N 42°18' W 070°55'0 0.3
2017-Sep-19 11:00N 42°18' W 070°55'713.5
2017-Sep-19 10:30N 42°22' W 071°03'713.3
2017-Sep-19 10:00N 42°18' W 070°55'2 4.7
2017-Sep-19 09:30N 42°16' W 070°56'2 0.3
2017-Sep-19 02:31N 42°15' W 070°58'012.1
2017-Sep-19 02:31N 42°15' W 070°58'2 4.5
2017-Sep-19 02:00N 42°15' W 070°55'612.9
2017-Sep-19 01:30N 42°21' W 071°00'2 4.6
2017-Sep-19 01:00N 42°22' W 071°03'917.3
2017-Sep-19 00:30N 42°15' W 070°55'4 8.0
2017-Sep-19 00:01N 42°18' W 070°59'5 9.3
2017-Sep-18 23:31N 42°22' W 071°03'816.4
2017-Sep-18 23:00N 42°16' W 070°55'2 4.8
2017-Sep-18 22:30N 42°18' W 070°55'713.5
2017-Sep-18 22:00N 42°22' W 071°03'5 9.5
2017-Sep-18 21:31N 42°18' W 070°59'3 5.5
2017-Sep-18 21:01N 42°16' W 070°56'714.9
2017-Sep-18 20:30N 42°22' W 071°03'5 9.7
2017-Sep-18 20:01N 42°18' W 070°58'3 6.8
2017-Sep-18 19:30N 42°16' W 070°55'3 5.8
2017-Sep-18 19:01N 42°19' W 070°56'611.8
2017-Sep-18 18:31N 42°22' W 071°03'813.4
2017-Sep-18 17:53N 42°15' W 070°55'3 7.7
2017-Sep-18 17:31N 42°18' W 070°55'713.4
2017-Sep-18 17:01N 42°22' W 071°03'4 7.2
2017-Sep-18 16:31N 42°20' W 070°58'611.1
2017-Sep-18 16:01N 42°15' W 070°55'3 5.8
2017-Sep-18 15:31N 42°18' W 070°55'713.5
2017-Sep-18 15:00N 42°22' W 071°03'0 0.0
2017-Sep-18 14:30N 42°22' W 071°03'1 1.2
2017-Sep-18 14:00N 42°22' W 071°02'1 1.2
2017-Sep-18 13:30N 42°22' W 071°03'713.6
2017-Sep-18 13:01N 42°18' W 070°55'713.5
2017-Sep-18 12:30N 42°22' W 071°03'713.4
2017-Sep-18 12:01N 42°18' W 070°55'713.4
2017-Sep-18 11:30N 42°22' W 071°03'713.5
2017-Sep-18 11:01N 42°18' W 070°55'3 5.8
2017-Sep-18 10:30N 42°15' W 070°55'0 0.0
2017-Sep-18 10:00N 42°15' W 070°55'0 0.2
2017-Sep-18 09:30N 42°15' W 070°55'1 0.1
2017-Sep-18 01:20N 42°16' W 070°56'516.9
2017-Sep-18 01:01N 42°20' W 071°00'2 4.5
2017-Sep-18 00:30N 42°22' W 071°03'816.8
2017-Sep-18 00:00N 42°15' W 070°55'3 5.9
2017-Sep-17 23:30N 42°18' W 070°55'713.1
2017-Sep-17 22:59N 42°22' W 071°03'3 5.9
2017-Sep-17 22:31N 42°20' W 070°60'612.1
2017-Sep-17 22:00N 42°15' W 070°55'3 5.9
2017-Sep-17 21:30N 42°18' W 070°55'713.5
2017-Sep-17 21:00N 42°22' W 071°03'3 5.9
2017-Sep-17 20:30N 42°20' W 070°59'612.0
2017-Sep-17 20:00N 42°15' W 070°55'2 3.4
2017-Sep-17 19:31N 42°17' W 070°56'714.2
2017-Sep-17 19:00N 42°22' W 071°03'3 5.9
2017-Sep-17 18:31N 42°20' W 070°59'612.1
2017-Sep-17 18:01N 42°15' W 070°55'2 4.1
2017-Sep-17 17:31N 42°17' W 070°56'713.9
2017-Sep-17 17:00N 42°22' W 071°03'4 7.8
2017-Sep-17 16:31N 42°20' W 070°58'510.8
2017-Sep-17 16:00N 42°15' W 070°55'510.0
2017-Sep-17 15:31N 42°19' W 070°60'4 7.3
2017-Sep-17 15:01N 42°22' W 071°03'611.5
2017-Sep-17 14:30N 42°19' W 070°56'4 5.7
2017-Sep-17 13:49N 42°15' W 070°55'3 9.1
2017-Sep-17 13:31N 42°17' W 070°58'611.6
2017-Sep-17 13:00N 42°22' W 071°03'0 0.0
2017-Sep-17 12:30N 42°22' W 071°03'1 1.3
2017-Sep-17 12:00N 42°22' W 071°02'0 0.0
2017-Sep-17 11:30N 42°22' W 071°02'815.0
2017-Sep-17 11:00N 42°16' W 070°55'1 0.1
2017-Sep-17 04:14N 42°15' W 070°55'1 3.1
2017-Sep-17 04:01N 42°16' W 070°56'815.1
2017-Sep-17 03:30N 42°22' W 071°02'4 8.8
2017-Sep-17 03:00N 42°18' W 070°58'4 7.8
2017-Sep-17 02:30N 42°15' W 070°55'612.9
2017-Sep-17 02:01N 42°20' W 071°00'1 2.4
2017-Sep-17 01:31N 42°20' W 070°59'610.5
2017-Sep-17 00:58N 42°15' W 070°55'1 1.4
2017-Sep-17 00:30N 42°16' W 070°55'714.8
2017-Sep-17 00:00N 42°21' W 071°02'0 0.2
2017-Sep-16 23:30N 42°21' W 071°02'815.9
2017-Sep-16 23:00N 42°15' W 070°55'0 0.0
2017-Sep-16 22:30N 42°15' W 070°55'714.8
2017-Sep-16 22:01N 42°21' W 071°02'  
Track history (hours):
 
Tides and Currents Weather Stations Pressure Air Temp Water Temp Dewpoint Dewpoint Depression Visibility Wind Speed Wind Dir Waves Ship Positions

Lightning

Owner: Boston Harbor Cruises, Boston, MA. More information available from US FCC via Universal Licensing System and Coast Guard Vessel Documentation Center.

Last reported at 2017-Sep-26 22:01 UTC. Time now 2017-Sep-26 22:04 UTC.
Position N 42°22' W 071°03'.

Length 22 m; draft 2.6 m.

Type: High speed craft. MMSI: 367578720.

Date/timePositionNaut miles runAvg speedWind from/ knotsBaromVisibWave heightAir tempDewpointWater temp
2017-Sep-26 22:01N 42°22' W 071°03'612.2
2017-Sep-26 21:30N 42°17' W 070°57'1 2.6
2017-Sep-26 21:00N 42°17' W 070°56'713.8
2017-Sep-26 20:30N 42°22' W 071°03'510.8
2017-Sep-26 20:00N 42°18' W 070°58'3 5.7
2017-Sep-26 19:30N 42°16' W 070°55'4 8.0
2017-Sep-26 19:00N 42°20' W 070°57'5 9.1
2017-Sep-26 18:31N 42°21' W 071°02'816.4
2017-Sep-26 18:01N 42°15' W 070°55'3 5.8
2017-Sep-26 17:30N 42°18' W 070°55'713.3
2017-Sep-26 17:01N 42°22' W 071°03'3 6.7
2017-Sep-26 16:30N 42°20' W 070°59'610.5
2017-Sep-26 15:58N 42°15' W 070°55'3 6.4
2017-Sep-26 15:31N 42°18' W 070°55'713.5
2017-Sep-26 15:01N 42°22' W 071°03'0 0.0
2017-Sep-26 14:30N 42°22' W 071°03'1 1.3
2017-Sep-26 14:00N 42°22' W 071°02'1 1.3
2017-Sep-26 13:30N 42°22' W 071°03'713.3
2017-Sep-26 13:01N 42°18' W 070°55'713.0
2017-Sep-26 12:30N 42°22' W 071°03'612.5
2017-Sep-26 12:00N 42°18' W 070°56'612.6
2017-Sep-26 11:30N 42°22' W 071°03'713.5
2017-Sep-26 11:00N 42°18' W 070°55'3 5.7
2017-Sep-26 10:30N 42°15' W 070°55'0 0.0
2017-Sep-26 10:00N 42°15' W 070°55'0 0.2
2017-Sep-26 09:30N 42°15' W 070°55'0 0.0
2017-Sep-26 02:48N 42°15' W 070°55'0 0.0
2017-Sep-26 02:29N 42°15' W 070°55'0 0.6
2017-Sep-26 02:00N 42°15' W 070°55'713.2
2017-Sep-26 01:30N 42°21' W 071°01'2 3.4
2017-Sep-26 01:01N 42°22' W 071°03'816.7
2017-Sep-26 00:30N 42°15' W 070°55'5 9.2
2017-Sep-26 00:01N 42°19' W 070°59'4 8.1
2017-Sep-25 23:31N 42°22' W 071°03'816.6
2017-Sep-25 23:01N 42°16' W 070°55'2 5.0
2017-Sep-25 22:31N 42°18' W 070°55'713.3
2017-Sep-25 22:00N 42°22' W 071°03'612.6
2017-Sep-25 21:31N 42°17' W 070°57'1 2.1
2017-Sep-25 21:01N 42°17' W 070°56'714.0
2017-Sep-25 20:30N 42°22' W 071°03'510.0
2017-Sep-25 20:01N 42°18' W 070°58'3 6.4
2017-Sep-25 19:30N 42°16' W 070°55'3 6.9
2017-Sep-25 19:01N 42°19' W 070°56'510.2
2017-Sep-25 18:30N 42°22' W 071°02'816.3
2017-Sep-25 18:00N 42°15' W 070°55'3 5.9
2017-Sep-25 17:31N 42°18' W 070°55'713.4
2017-Sep-25 17:00N 42°22' W 071°03'4 7.7
2017-Sep-25 16:30N 42°20' W 070°58'510.9
2017-Sep-25 16:00N 42°15' W 070°55'3 5.6
2017-Sep-25 15:30N 42°18' W 070°55'713.5
2017-Sep-25 15:01N 42°22' W 071°03'0 0.0
2017-Sep-25 14:30N 42°22' W 071°03'0 0.0
2017-Sep-25 14:00N 42°22' W 071°03'0 0.0
2017-Sep-25 13:31N 42°22' W 071°03'713.4
2017-Sep-25 13:00N 42°18' W 070°55'713.5
2017-Sep-25 12:30N 42°22' W 071°03'713.6
2017-Sep-25 12:00N 42°18' W 070°55'713.3
2017-Sep-25 11:30N 42°22' W 071°03'713.3
2017-Sep-25 11:00N 42°18' W 070°55'3 5.9
2017-Sep-25 10:30N 42°15' W 070°55'0 0.0
2017-Sep-25 01:27N 42°15' W 070°55'4 9.9
2017-Sep-25 01:00N 42°19' W 070°59'4 8.2
2017-Sep-25 00:30N 42°22' W 071°03'917.1
2017-Sep-25 00:00N 42°15' W 070°55'2 3.9
2017-Sep-24 23:31N 42°17' W 070°56'714.0
2017-Sep-24 23:01N 42°22' W 071°03'3 5.8
2017-Sep-24 22:30N 42°20' W 070°59'611.9
2017-Sep-24 22:00N 42°15' W 070°55'3 5.4
2017-Sep-24 21:31N 42°18' W 070°55'713.6
2017-Sep-24 21:01N 42°22' W 071°03'3 5.2
2017-Sep-24 20:31N 42°21' W 070°60'612.6
2017-Sep-24 20:00N 42°15' W 070°55'2 3.8
2017-Sep-24 19:31N 42°17' W 070°56'713.9
2017-Sep-24 19:00N 42°22' W 071°03'2 4.9
2017-Sep-24 18:31N 42°21' W 071°00'612.8
2017-Sep-24 18:01N 42°15' W 070°55'2 4.3
2017-Sep-24 17:31N 42°17' W 070°56'713.7
2017-Sep-24 17:00N 42°22' W 071°03'3 5.9
2017-Sep-24 16:30N 42°20' W 070°59'6 8.2
2017-Sep-24 15:47N 42°15' W 070°55'1 3.0
2017-Sep-24 15:31N 42°16' W 070°56'815.5
2017-Sep-24 15:00N 42°22' W 071°03'611.4
2017-Sep-24 14:30N 42°19' W 070°56'4 7.9
2017-Sep-24 14:00N 42°15' W 070°55'0 0.7
2017-Sep-24 13:31N 42°16' W 070°55'816.8
2017-Sep-24 13:01N 42°22' W 071°03'3 5.2
2017-Sep-24 12:31N 42°20' W 070°60'612.4
2017-Sep-24 12:00N 42°15' W 070°55'1 2.0
2017-Sep-24 11:30N 42°16' W 070°56'2 0.3
2017-Sep-24 04:44N 42°15' W 070°58'2 7.0
2017-Sep-24 04:30N 42°15' W 070°57'1 2.0
2017-Sep-24 04:00N 42°16' W 070°55'714.9
2017-Sep-24 03:31N 42°21' W 071°02'5 9.5
2017-Sep-24 03:00N 42°18' W 070°58'3 5.6
2017-Sep-24 02:30N 42°16' W 070°55'816.3
2017-Sep-24 02:00N 42°22' W 071°03'510.4
2017-Sep-24 01:31N 42°18' W 070°58'3 6.7
2017-Sep-24 01:00N 42°15' W 070°55'3 6.0
2017-Sep-24 00:31N 42°18' W 070°55'611.7
2017-Sep-24 00:00N 42°21' W 071°02'0 0.6
2017-Sep-23 23:30N 42°21' W 071°02'815.9
2017-Sep-23 23:00N 42°15' W 070°55'1 1.6
2017-Sep-23 22:30N 42°16' W 070°56'4 7.1
2017-Sep-23 22:01N 42°19' W 070°59'4 7.6
2017-Sep-23 21:31N 42°22' W 071°02'815.7
2017-Sep-23 20:59N 42°15' W 070°55'2 4.5
2017-Sep-23 20:30N 42°17' W 070°56'713.8
2017-Sep-23 20:00N 42°22' W 071°03'1 0.0
2017-Sep-22 02:00N 42°22' W 071°02'0 1.0
2017-Sep-22 01:30N 42°21' W 071°02'816.3
2017-Sep-22 01:00N 42°15' W 070°55'5 9.5
2017-Sep-22 00:30N 42°19' W 070°59'3 6.4
2017-Sep-22 00:01N 42°22' W 071°02'815.9
2017-Sep-21 23:30N 42°15' W 070°55'3 5.7
2017-Sep-21 23:01N 42°18' W 070°57'611.7
2017-Sep-21 22:30N 42°22' W 071°03'713.2
2017-Sep-21 22:01N 42°18' W 070°55'713.5
2017-Sep-21 21:30N 42°22' W 071°03'1 2.0
2017-Sep-21 21:00N 42°22' W 071°02'815.8
2017-Sep-21 20:30N 42°15' W 070°55'4 7.7
2017-Sep-21 20:01N 42°19' W 070°56'510.9
2017-Sep-21 19:30N 42°22' W 071°03'816.4
2017-Sep-21 18:59N 42°15' W 070°55'0 0.8
2017-Sep-21 18:30N 42°16' W 070°55'816.8
2017-Sep-21 18:00N 42°22' W 071°03'3 6.7
2017-Sep-21 17:30N 42°19' W 070°60'510.3
2017-Sep-21 16:59N 42°15' W 070°55'510.3
2017-Sep-21 16:31N 42°19' W 070°59'4 7.4
2017-Sep-21 16:00N 42°22' W 071°03'0 0.0
2017-Sep-21 15:30N 42°22' W 071°03'0 0.5
2017-Sep-21 15:00N 42°22' W 071°03'1 2.9
2017-Sep-21 14:31N 42°21' W 071°01'714.1
2017-Sep-21 14:00N 42°15' W 070°55'613.0
2017-Sep-21 13:31N 42°20' W 071°00'2 3.3
2017-Sep-21 13:00N 42°21' W 071°02'612.2
2017-Sep-21 12:30N 42°18' W 070°55'713.5
2017-Sep-21 12:00N 42°22' W 071°03'713.5
2017-Sep-21 11:31N 42°18' W 070°55'0 0.3
2017-Sep-21 11:01N 42°18' W 070°55'713.3
2017-Sep-21 10:31N 42°22' W 071°03'713.2
2017-Sep-21 10:01N 42°18' W 070°55'3 5.8
2017-Sep-21 09:31N 42°15' W 070°55'1 0.2
2017-Sep-21 02:47N 42°15' W 070°57'1 4.5
2017-Sep-21 02:29N 42°15' W 070°55'816.9
2017-Sep-21 02:00N 42°22' W 071°02'0 1.0
2017-Sep-21 01:31N 42°21' W 071°02'816.2
2017-Sep-21 01:01N 42°15' W 070°55'510.1
2017-Sep-21 00:31N 42°20' W 070°57'4 7.2
2017-Sep-21 00:00N 42°22' W 071°02'815.9
2017-Sep-20 23:30N 42°15' W 070°55'3 6.3
2017-Sep-20 23:01N 42°18' W 070°56'612.7
2017-Sep-20 22:30N 42°22' W 071°03'713.5
2017-Sep-20 22:00N 42°18' W 070°55'713.5
2017-Sep-20 21:31N 42°22' W 071°03'1 1.9
2017-Sep-20 21:00N 42°22' W 071°02'815.8
2017-Sep-20 20:30N 42°15' W 070°55'2 3.9
2017-Sep-20 20:01N 42°17' W 070°57'713.3
2017-Sep-20 19:31N 42°22' W 071°03'917.0
2017-Sep-20 19:00N 42°15' W 070°55'0 0.4
2017-Sep-20 18:31N 42°15' W 070°55'917.0
2017-Sep-20 18:01N 42°22' W 071°03'2 4.0
2017-Sep-20 17:31N 42°21' W 071°01'713.3
2017-Sep-20 17:00N 42°15' W 070°55'510.4
2017-Sep-20 16:30N 42°19' W 070°60'4 7.1
2017-Sep-20 16:00N 42°22' W 071°03'0 0.0
2017-Sep-20 15:30N 42°22' W 071°03'0 0.4
2017-Sep-20 15:01N 42°22' W 071°03'9 7.6
2017-Sep-20 13:53N 42°15' W 070°55'718.8
2017-Sep-20 13:30N 42°21' W 071°01'1 2.9
2017-Sep-20 13:00N 42°22' W 071°03'713.0
2017-Sep-20 12:30N 42°18' W 070°55'713.5
2017-Sep-20 12:00N 42°22' W 071°03'713.6
2017-Sep-20 11:31N 42°18' W 070°55'0 0.3
2017-Sep-20 11:00N 42°18' W 070°55'613.0
2017-Sep-20 10:31N 42°22' W 071°03'613.0
2017-Sep-20 10:01N 42°18' W 070°55'3 5.2
2017-Sep-20 09:30N 42°16' W 070°55'2 0.3
2017-Sep-20 02:59N 42°15' W 070°58'2 4.6
2017-Sep-20 02:30N 42°15' W 070°55'816.1
2017-Sep-20 02:01N 42°22' W 071°02'0 1.0
2017-Sep-20 01:31N 42°21' W 071°02'815.4
2017-Sep-20 00:59N 42°15' W 070°55'4 9.0
2017-Sep-20 00:31N 42°19' W 070°59'4 7.1
2017-Sep-20 00:01N 42°22' W 071°02'815.9
2017-Sep-19 23:30N 42°15' W 070°55'2 4.3
2017-Sep-19 23:00N 42°17' W 070°57'612.9
2017-Sep-19 22:30N 42°22' W 071°03'713.3
2017-Sep-19 22:00N 42°18' W 070°55'713.5
2017-Sep-19 21:31N 42°22' W 071°03'1 2.0
2017-Sep-19 21:01N 42°22' W 071°02'815.8
2017-Sep-19 20:30N 42°15' W 070°55'4 7.6
2017-Sep-19 20:01N 42°19' W 070°56'510.9
2017-Sep-19 19:31N 42°22' W 071°03'8 9.1
2017-Sep-19 18:36N 42°15' W 070°55'0 3.1
2017-Sep-19 18:31N 42°15' W 070°55'817.0
2017-Sep-19 18:00N 42°22' W 071°03'1 3.0
2017-Sep-19 17:31N 42°21' W 071°01'714.5
2017-Sep-19 17:01N 42°15' W 070°55'4 9.0
2017-Sep-19 16:31N 42°19' W 070°59'4 3.1
2017-Sep-19 15:12N 42°22' W 071°03'0 0.9
2017-Sep-19 15:00N 42°22' W 071°03'2 4.5
2017-Sep-19 14:31N 42°20' W 071°00'612.2
2017-Sep-19 13:59N 42°15' W 070°55'714.5
2017-Sep-19 13:30N 42°21' W 071°01'2 3.2
2017-Sep-19 13:01N 42°22' W 071°03'612.9
2017-Sep-19 12:30N 42°18' W 070°55'713.5
2017-Sep-19 12:00N 42°22' W 071°03'713.5
2017-Sep-19 11:31N 42°18' W 070°55'0 0.3
2017-Sep-19 11:00N 42°18' W 070°55'713.5
2017-Sep-19 10:30N 42°22' W 071°03'713.3
2017-Sep-19 10:00N 42°18' W 070°55'2 4.7
2017-Sep-19 09:30N 42°16' W 070°56'2 0.3
2017-Sep-19 02:31N 42°15' W 070°58'012.1
2017-Sep-19 02:31N 42°15' W 070°58'2 4.5
2017-Sep-19 02:00N 42°15' W 070°55'612.9
2017-Sep-19 01:30N 42°21' W 071°00'2 4.6
2017-Sep-19 01:00N 42°22' W 071°03'917.3
2017-Sep-19 00:30N 42°15' W 070°55'4 8.0
2017-Sep-19 00:01N 42°18' W 070°59'5 9.3
2017-Sep-18 23:31N 42°22' W 071°03'816.4
2017-Sep-18 23:00N 42°16' W 070°55'2 4.8
2017-Sep-18 22:30N 42°18' W 070°55'713.5
2017-Sep-18 22:00N 42°22' W 071°03'5 9.5
2017-Sep-18 21:31N 42°18' W 070°59'3 5.5
2017-Sep-18 21:01N 42°16' W 070°56'714.9
2017-Sep-18 20:30N 42°22' W 071°03'5 9.7
2017-Sep-18 20:01N 42°18' W 070°58'3 6.8
2017-Sep-18 19:30N 42°16' W 070°55'3 5.8
2017-Sep-18 19:01N 42°19' W 070°56'611.8
2017-Sep-18 18:31N 42°22' W 071°03'813.4
2017-Sep-18 17:53N 42°15' W 070°55'3 7.7
2017-Sep-18 17:31N 42°18' W 070°55'713.4
2017-Sep-18 17:01N 42°22' W 071°03'4 7.2
2017-Sep-18 16:31N 42°20' W 070°58'611.1
2017-Sep-18 16:01N 42°15' W 070°55'3 5.8
2017-Sep-18 15:31N 42°18' W 070°55'713.5
2017-Sep-18 15:00N 42°22' W 071°03'0 0.0
2017-Sep-18 14:30N 42°22' W 071°03'1 1.2
2017-Sep-18 14:00N 42°22' W 071°02'1 1.2
2017-Sep-18 13:30N 42°22' W 071°03'713.6
2017-Sep-18 13:01N 42°18' W 070°55'713.5
2017-Sep-18 12:30N 42°22' W 071°03'713.4
2017-Sep-18 12:01N 42°18' W 070°55'713.4
2017-Sep-18 11:30N 42°22' W 071°03'713.5
2017-Sep-18 11:01N 42°18' W 070°55'3 5.8
2017-Sep-18 10:30N 42°15' W 070°55'0 0.0
2017-Sep-18 10:00N 42°15' W 070°55'0 0.2
2017-Sep-18 09:30N 42°15' W 070°55'1 0.1
2017-Sep-18 01:20N 42°16' W 070°56'516.9
2017-Sep-18 01:01N 42°20' W 071°00'2 4.5
2017-Sep-18 00:30N 42°22' W 071°03'816.8
2017-Sep-18 00:00N 42°15' W 070°55'3 5.9
2017-Sep-17 23:30N 42°18' W 070°55'713.1
2017-Sep-17 22:59N 42°22' W 071°03'3 5.9
2017-Sep-17 22:31N 42°20' W 070°60'612.1
2017-Sep-17 22:00N 42°15' W 070°55'3 5.9
2017-Sep-17 21:30N 42°18' W 070°55'713.5
2017-Sep-17 21:00N 42°22' W 071°03'3 5.9
2017-Sep-17 20:30N 42°20' W 070°59'612.0
2017-Sep-17 20:00N 42°15' W 070°55'2 3.4
2017-Sep-17 19:31N 42°17' W 070°56'714.2
2017-Sep-17 19:00N 42°22' W 071°03'3 5.9
2017-Sep-17 18:31N 42°20' W 070°59'612.1
2017-Sep-17 18:01N 42°15' W 070°55'2 4.1
2017-Sep-17 17:31N 42°17' W 070°56'713.9
2017-Sep-17 17:00N 42°22' W 071°03'4 7.8
2017-Sep-17 16:31N 42°20' W 070°58'510.8
2017-Sep-17 16:00N 42°15' W 070°55'510.0
2017-Sep-17 15:31N 42°19' W 070°60'4 7.3
2017-Sep-17 15:01N 42°22' W 071°03'611.5
2017-Sep-17 14:30N 42°19' W 070°56'4 5.7
2017-Sep-17 13:49N 42°15' W 070°55'3 9.1
2017-Sep-17 13:31N 42°17' W 070°58'611.6
2017-Sep-17 13:00N 42°22' W 071°03'0 0.0
2017-Sep-17 12:30N 42°22' W 071°03'1 1.3
2017-Sep-17 12:00N 42°22' W 071°02'0 0.0
2017-Sep-17 11:30N 42°22' W 071°02'815.0
2017-Sep-17 11:00N 42°16' W 070°55'1 0.1
2017-Sep-17 04:14N 42°15' W 070°55'1 3.1
2017-Sep-17 04:01N 42°16' W 070°56'815.1
2017-Sep-17 03:30N 42°22' W 071°02'4 8.8
2017-Sep-17 03:00N 42°18' W 070°58'4 7.8
2017-Sep-17 02:30N 42°15' W 070°55'612.9
2017-Sep-17 02:01N 42°20' W 071°00'1 2.4
2017-Sep-17 01:31N 42°20' W 070°59'610.5
2017-Sep-17 00:58N 42°15' W 070°55'1 1.4
2017-Sep-17 00:30N 42°16' W 070°55'714.8
2017-Sep-17 00:00N 42°21' W 071°02'0 0.2
2017-Sep-16 23:30N 42°21' W 071°02'815.9
2017-Sep-16 23:00N 42°15' W 070°55'0 0.0
2017-Sep-16 22:30N 42°15' W 070°55'714.8
2017-Sep-16 22:01N 42°21' W 071°02'  

Dump ship's entire track history